Time;durP1;ratioP1;P1;durP2;ratioP2;P2;SDS_P1;SDS_P2;PMS_P1;PMS_P2;Temp;Humidity;BMP_temperature;BMP_pressure;BME280_temperature;BME280_humidity;BME280_pressure;Samples;Min_cycle;Max_cycle;Signal;HPM_P1;HPM_P2
2021/04/10 00:01:51;;;;;;;2.95;1.73;;;25.20;34.60;;;;;;5056211;28;20070;-54
2021/04/10 00:04:17;;;;;;;2.80;1.67;;;25.20;34.70;;;;;;5045355;28;20041;-51
2021/04/10 00:06:43;;;;;;;3.00;1.63;;;25.20;34.80;;;;;;5055928;28;20044;-56
2021/04/10 00:09:09;;;;;;;3.53;1.58;;;25.20;34.80;;;;;;5059623;28;20036;-56
2021/04/10 00:11:35;;;;;;;3.33;1.70;;;25.10;34.80;;;;;;5060786;28;20493;-55
2021/04/10 00:14:12;;;;;;;2.70;1.73;;;25.10;34.80;;;;;;5058566;28;20028;-56
2021/04/10 00:16:38;;;;;;;2.80;1.60;;;25.10;34.90;;;;;;5049051;28;20032;-52
2021/04/10 00:19:04;;;;;;;2.58;1.67;;;25.10;34.90;;;;;;5050234;28;20420;-55
2021/04/10 00:21:29;;;;;;;3.40;1.60;;;25.10;35.00;;;;;;5060785;28;20078;-55
2021/04/10 00:23:55;;;;;;;2.92;1.60;;;25.10;35.00;;;;;;5060664;28;20455;-52
2021/04/10 00:26:22;;;;;;;3.85;1.50;;;25.10;35.10;;;;;;5060523;28;20037;-55
2021/04/10 00:28:47;;;;;;;2.92;1.77;;;25.10;35.10;;;;;;5065933;28;20024;-58
2021/04/10 00:31:13;;;;;;;3.22;1.45;;;25.00;35.10;;;;;;5062397;28;20090;-54
2021/04/10 00:33:40;;;;;;;2.47;1.42;;;25.00;35.10;;;;;;5063030;28;20024;-55
2021/04/10 00:36:07;;;;;;;2.80;1.58;;;25.00;35.10;;;;;;5065009;28;20036;-53
2021/04/10 00:38:34;;;;;;;3.15;1.58;;;25.00;35.20;;;;;;5065287;28;20471;-54
2021/04/10 00:41:01;;;;;;;3.42;1.65;;;24.90;35.20;;;;;;5060118;28;20029;-55
2021/04/10 00:43:27;;;;;;;2.95;1.55;;;24.90;35.30;;;;;;5061116;28;20511;-51
2021/04/10 00:45:53;;;;;;;3.63;1.77;;;24.90;35.30;;;;;;5065252;28;20116;-55
2021/04/10 00:48:19;;;;;;;3.15;1.70;;;24.90;35.30;;;;;;5055805;28;20112;-53
2021/04/10 00:50:46;;;;;;;2.80;1.52;;;24.90;35.30;;;;;;5065352;28;20082;-53
2021/04/10 00:53:14;;;;;;;3.08;1.58;;;24.90;35.40;;;;;;5064495;28;20033;-55
2021/04/10 00:55:41;;;;;;;2.90;1.80;;;24.80;35.40;;;;;;5064774;28;20021;-51
2021/04/10 00:58:07;;;;;;;2.50;1.35;;;24.80;35.40;;;;;;5065014;28;20443;-52
2021/04/10 01:00:32;;;;;;;3.58;1.50;;;24.80;35.40;;;;;;5055274;28;20124;-50
2021/04/10 01:02:58;;;;;;;2.92;1.30;;;24.80;35.40;;;;;;5061717;28;20176;-55
2021/04/10 01:05:24;;;;;;;2.80;1.50;;;24.80;35.40;;;;;;5062115;28;20035;-52
2021/04/10 01:07:49;;;;;;;2.80;1.30;;;24.80;35.50;;;;;;5054675;28;20052;-53
2021/04/10 01:10:15;;;;;;;2.60;1.40;;;24.80;35.50;;;;;;5062850;28;20021;-54
2021/04/10 01:13:12;;;;;;;2.58;1.40;;;24.80;35.60;;;;;;5064230;28;20039;-55
2021/04/10 01:15:37;;;;;;;2.67;1.50;;;24.70;35.50;;;;;;5064752;28;20114;-55
2021/04/10 01:18:13;;;;;;;3.15;1.48;;;24.80;35.60;;;;;;5064150;28;20441;-54
2021/04/10 01:20:50;;;;;;;3.03;1.40;;;24.70;35.60;;;;;;5062786;28;20080;-52
2021/04/10 01:23:34;;;;;;;3.05;1.52;;;24.70;35.60;;;;;;5063483;28;20032;-53
2021/04/10 01:26:00;;;;;;;3.30;1.40;;;24.70;35.60;;;;;;5060211;28;20075;-55
2021/04/10 01:28:28;;;;;;;2.10;1.33;;;24.70;35.70;;;;;;5047255;28;20097;-53
2021/04/10 01:30:54;;;;;;;2.88;1.50;;;24.70;35.70;;;;;;5063167;28;20041;-53
2021/04/10 01:33:22;;;;;;;2.85;1.52;;;24.70;35.80;;;;;;5060574;28;20024;-55
2021/04/10 01:35:52;;;;;;;3.03;1.30;;;24.60;35.70;;;;;;5063529;28;20028;-55
2021/04/10 01:38:21;;;;;;;2.35;1.40;;;24.60;35.70;;;;;;5062036;28;20523;-55
2021/04/10 01:40:51;;;;;;;2.25;1.40;;;24.60;35.80;;;;;;5062321;28;20306;-54
2021/04/10 01:43:17;;;;;;;2.47;1.27;;;24.60;35.80;;;;;;5058756;28;20040;-54
2021/04/10 01:45:43;;;;;;;2.78;1.48;;;24.60;35.80;;;;;;5062966;28;20036;-57
2021/04/10 01:48:12;;;;;;;2.97;1.50;;;24.60;35.80;;;;;;5062640;28;20371;-52
2021/04/10 01:50:39;;;;;;;2.60;1.20;;;24.60;35.90;;;;;;5063638;28;20248;-51
2021/04/10 01:53:06;;;;;;;2.47;1.50;;;24.60;35.90;;;;;;5048634;28;20032;-53
2021/04/10 01:55:32;;;;;;;2.55;1.35;;;24.60;35.90;;;;;;5053491;28;20035;-54
2021/04/10 01:57:59;;;;;;;2.60;1.50;;;24.60;35.90;;;;;;5057830;28;20025;-57
2021/04/10 02:00:27;;;;;;;2.30;1.40;;;24.60;35.90;;;;;;5049648;28;20044;-56
2021/04/10 02:02:54;;;;;;;1.98;1.25;;;24.60;35.90;;;;;;5057989;28;20032;-58
2021/04/10 02:05:21;;;;;;;2.30;1.40;;;24.50;35.90;;;;;;5060960;28;20427;-52
2021/04/10 02:07:49;;;;;;;2.45;1.30;;;24.50;35.90;;;;;;5047221;28;20040;-53
2021/04/10 02:10:21;;;;;;;1.92;1.23;;;24.50;35.90;;;;;;5061392;28;20020;-51
2021/04/10 02:12:49;;;;;;;3.30;1.50;;;24.50;36.00;;;;;;5062609;28;20614;-51
2021/04/10 02:15:15;;;;;;;1.77;1.17;;;24.50;36.00;;;;;;5060966;28;20115;-55
2021/04/10 02:17:41;;;;;;;2.70;1.35;;;24.40;35.90;;;;;;5063102;28;20030;-52
2021/04/10 02:20:11;;;;;;;2.08;1.30;;;24.40;36.00;;;;;;5062266;28;20101;-52
2021/04/10 02:22:38;;;;;;;2.20;1.20;;;24.40;36.00;;;;;;5063472;28;20033;-54
2021/04/10 02:25:06;;;;;;;2.10;1.40;;;24.40;36.00;;;;;;5060822;28;20047;-52
2021/04/10 02:27:32;;;;;;;2.28;1.33;;;24.40;36.00;;;;;;5064235;28;20024;-54
2021/04/10 02:29:59;;;;;;;1.90;1.10;;;24.40;36.00;;;;;;5063213;28;20117;-54
2021/04/10 02:32:34;;;;;;;1.75;1.30;;;24.40;36.00;;;;;;5061854;28;20219;-53
2021/04/10 02:35:14;;;;;;;2.45;1.23;;;24.40;36.10;;;;;;5061258;28;20028;-55
2021/04/10 02:37:42;;;;;;;2.25;1.45;;;24.30;36.00;;;;;;5056228;28;20097;-53
2021/04/10 02:40:10;;;;;;;1.80;1.15;;;24.40;36.10;;;;;;5061551;28;20043;-53
2021/04/10 02:42:42;;;;;;;2.53;1.50;;;24.30;36.00;;;;;;5062250;28;20044;-53
2021/04/10 02:45:10;;;;;;;2.00;1.20;;;24.30;36.00;;;;;;5051934;28;20032;-55
2021/04/10 02:47:38;;;;;;;2.10;1.50;;;24.30;36.00;;;;;;5054649;28;20037;-57
2021/04/10 02:50:06;;;;;;;2.53;1.40;;;24.30;36.10;;;;;;5059617;28;20032;-49
2021/04/10 02:52:49;;;;;;;2.08;1.38;;;24.30;36.10;;;;;;5063338;28;20467;-52
2021/04/10 02:55:19;;;;;;;2.28;1.30;;;24.30;36.10;;;;;;5061384;28;20063;-57
2021/04/10 02:57:46;;;;;;;1.75;1.17;;;24.30;36.60;;;;;;5061316;28;20876;-50
2021/04/10 03:00:15;;;;;;;2.05;1.20;;;24.30;36.60;;;;;;5059664;28;20044;-54
2021/04/10 03:02:41;;;;;;;2.13;1.27;;;24.30;36.10;;;;;;5061101;28;20094;-56
2021/04/10 03:05:10;;;;;;;2.28;1.30;;;24.30;36.10;;;;;;5060068;28;20465;-54
2021/04/10 03:07:36;;;;;;;2.20;1.10;;;24.30;36.20;;;;;;5054153;28;20032;-53
2021/04/10 03:10:02;;;;;;;3.05;1.17;;;24.20;36.60;;;;;;5059944;28;20032;-56
2021/04/10 03:12:28;;;;;;;1.38;1.00;;;24.20;36.10;;;;;;5061006;28;20860;-54
2021/04/10 03:14:54;;;;;;;1.88;1.10;;;24.20;36.10;;;;;;5061004;28;20025;-54
2021/04/10 03:17:22;;;;;;;2.92;1.20;;;24.20;36.10;;;;;;5062646;28;20082;-56
2021/04/10 03:19:49;;;;;;;2.10;1.30;;;24.20;36.20;;;;;;5060519;28;20086;-54
2021/04/10 03:22:16;;;;;;;2.42;1.40;;;24.20;36.20;;;;;;5061435;28;20120;-53
2021/04/10 03:24:42;;;;;;;2.20;1.10;;;24.20;36.20;;;;;;5060361;28;20044;-54
2021/04/10 03:27:09;;;;;;;1.83;1.25;;;24.20;36.20;;;;;;5061327;28;20033;-55
2021/04/10 03:29:36;;;;;;;2.10;1.17;;;24.20;36.20;;;;;;5049086;28;20052;-53
2021/04/10 03:32:02;;;;;;;1.80;1.10;;;24.20;36.20;;;;;;5059630;28;20360;-56
2021/04/10 03:34:29;;;;;;;2.30;1.10;;;24.20;36.20;;;;;;5048527;28;20033;-55
2021/04/10 03:36:55;;;;;;;1.83;1.10;;;24.20;36.20;;;;;;5063933;28;20032;-54
2021/04/10 03:39:21;;;;;;;1.50;1.10;;;24.20;36.20;;;;;;5066279;28;20036;-57
2021/04/10 03:41:47;;;;;;;2.40;1.30;;;24.20;36.30;;;;;;5067282;28;20755;-49
2021/04/10 03:44:12;;;;;;;1.90;1.20;;;24.10;36.20;;;;;;5065776;28;20131;-53
2021/04/10 03:46:38;;;;;;;2.00;1.10;;;24.20;36.20;;;;;;5063099;28;20032;-54
2021/04/10 03:49:05;;;;;;;1.50;1.08;;;24.10;36.20;;;;;;5062769;28;20478;-53
2021/04/10 03:51:31;;;;;;;1.40;1.08;;;24.10;36.20;;;;;;5062421;28;20126;-56
2021/04/10 03:53:57;;;;;;;2.55;1.20;;;24.10;36.20;;;;;;5063493;28;20448;-55
2021/04/10 03:56:22;;;;;;;1.95;1.20;;;24.10;36.20;;;;;;5066748;28;20112;-54
2021/04/10 03:58:48;;;;;;;1.70;1.10;;;24.10;36.30;;;;;;5065263;28;20466;-57
2021/04/10 04:01:14;;;;;;;2.10;1.30;;;24.10;36.20;;;;;;5058463;28;20324;-54
2021/04/10 04:03:39;;;;;;;2.38;1.20;;;24.10;36.30;;;;;;5054123;28;20107;-57
2021/04/10 04:06:05;;;;;;;1.75;1.20;;;24.10;36.30;;;;;;5057746;28;20037;-55
2021/04/10 04:08:31;;;;;;;2.17;1.38;;;24.10;36.30;;;;;;5061672;28;20031;-51
2021/04/10 04:10:56;;;;;;;2.03;1.20;;;24.10;36.30;;;;;;5063365;28;20043;-54
2021/04/10 04:13:22;;;;;;;1.92;1.25;;;24.10;36.30;;;;;;5064547;28;20165;-55
2021/04/10 04:15:48;;;;;;;2.88;1.23;;;24.10;36.30;;;;;;5063646;28;20028;-50
2021/04/10 04:18:13;;;;;;;1.98;1.13;;;24.10;36.30;;;;;;5055855;28;20040;-58
2021/04/10 04:20:39;;;;;;;3.15;1.33;;;24.10;36.30;;;;;;5061490;28;20637;-51
2021/04/10 04:23:04;;;;;;;2.42;1.30;;;24.10;36.30;;;;;;5065196;28;20288;-53
2021/04/10 04:25:31;;;;;;;2.50;1.30;;;24.10;36.30;;;;;;5061993;28;20032;-55
2021/04/10 04:27:56;;;;;;;2.33;1.40;;;24.00;36.20;;;;;;5065190;28;20029;-52
2021/04/10 04:30:23;;;;;;;2.78;1.40;;;24.10;36.30;;;;;;5063025;28;20047;-53
2021/04/10 04:32:48;;;;;;;2.08;1.40;;;24.00;36.20;;;;;;5064005;28;20020;-56
2021/04/10 04:35:14;;;;;;;1.77;1.30;;;24.00;36.20;;;;;;5056150;28;20404;-55
2021/04/10 04:37:40;;;;;;;2.80;1.80;;;24.00;36.20;;;;;;5063805;28;20044;-56
2021/04/10 04:40:07;;;;;;;2.65;1.40;;;24.00;36.20;;;;;;5060580;28;20119;-56
2021/04/10 04:42:33;;;;;;;2.40;1.60;;;24.00;36.30;;;;;;5062703;28;20064;-55
2021/04/10 04:44:59;;;;;;;2.30;1.60;;;24.00;36.30;;;;;;5053537;28;20068;-52
2021/04/10 04:47:24;;;;;;;2.85;1.55;;;24.00;36.30;;;;;;5061885;28;20452;-53
2021/04/10 04:49:50;;;;;;;1.77;1.10;;;24.00;36.30;;;;;;5063826;28;20457;-57
2021/04/10 04:52:16;;;;;;;2.40;1.38;;;24.00;36.30;;;;;;5060858;28;20028;-53
2021/04/10 04:54:41;;;;;;;2.03;1.30;;;24.00;36.30;;;;;;5056723;28;20406;-56
2021/04/10 04:57:07;;;;;;;2.53;1.50;;;24.00;36.30;;;;;;5062616;28;20447;-55
2021/04/10 04:59:32;;;;;;;2.17;1.35;;;24.00;36.30;;;;;;5055480;28;20106;-56
2021/04/10 05:01:58;;;;;;;2.60;1.38;;;24.00;36.30;;;;;;5052021;28;20454;-56
2021/04/10 05:04:24;;;;;;;2.55;1.52;;;24.00;36.30;;;;;;5058901;28;20021;-53
2021/04/10 05:06:49;;;;;;;2.17;1.48;;;24.00;36.30;;;;;;5048902;28;20185;-57
2021/04/10 05:09:15;;;;;;;2.20;1.33;;;24.00;36.30;;;;;;5045480;28;20055;-52
2021/04/10 05:11:41;;;;;;;2.50;1.40;;;23.90;36.30;;;;;;5057509;28;20029;-53
2021/04/10 05:14:06;;;;;;;2.83;1.70;;;23.90;36.30;;;;;;5056287;28;20040;-55
2021/04/10 05:16:32;;;;;;;2.88;1.50;;;23.90;36.30;;;;;;5050057;28;20457;-56
2021/04/10 05:18:58;;;;;;;2.50;1.42;;;23.90;36.30;;;;;;5057780;28;20336;-56
2021/04/10 05:21:24;;;;;;;2.40;1.45;;;23.90;36.30;;;;;;5049144;28;20059;-57
2021/04/10 05:23:50;;;;;;;3.50;1.40;;;23.90;36.30;;;;;;5046539;28;20143;-57
2021/04/10 05:26:16;;;;;;;1.80;1.15;;;23.90;36.30;;;;;;5062280;28;20028;-56
2021/04/10 05:28:41;;;;;;;2.75;1.38;;;23.90;36.30;;;;;;5062286;28;20259;-57
2021/04/10 05:31:07;;;;;;;2.45;1.45;;;23.90;36.40;;;;;;5060893;28;20494;-58
2021/04/10 05:33:33;;;;;;;2.38;1.30;;;23.90;36.40;;;;;;5060673;28;20077;-58
2021/04/10 05:35:59;;;;;;;2.47;1.65;;;23.90;36.30;;;;;;5062753;28;20404;-57
2021/04/10 05:38:24;;;;;;;2.65;1.58;;;23.90;36.30;;;;;;5064125;28;20379;-59
2021/04/10 05:40:50;;;;;;;2.47;1.40;;;23.90;36.30;;;;;;5062795;28;20505;-57
2021/04/10 05:43:16;;;;;;;2.40;1.38;;;23.90;36.30;;;;;;5064650;28;20028;-55
2021/04/10 05:45:42;;;;;;;2.40;1.45;;;23.90;36.30;;;;;;5062619;28;20541;-55
2021/04/10 05:48:08;;;;;;;2.15;1.45;;;23.90;36.30;;;;;;5064481;28;20131;-54
2021/04/10 05:50:34;;;;;;;2.15;1.40;;;23.90;36.30;;;;;;5064262;28;20036;-54
2021/04/10 05:53:00;;;;;;;2.45;1.35;;;23.90;36.30;;;;;;5061412;28;20033;-58
2021/04/10 05:55:26;;;;;;;2.53;1.45;;;23.90;36.40;;;;;;5059792;28;20620;-51
2021/04/10 05:57:51;;;;;;;2.70;1.40;;;23.90;36.30;;;;;;5064982;28;20033;-52
2021/04/10 06:00:18;;;;;;;2.00;1.27;;;23.90;36.40;;;;;;5061256;28;20041;-60
2021/04/10 06:02:43;;;;;;;2.20;1.40;;;23.90;36.40;;;;;;5060362;28;20029;-60
2021/04/10 06:05:09;;;;;;;2.20;1.35;;;23.90;36.40;;;;;;5062189;28;20024;-57
2021/04/10 06:07:35;;;;;;;2.60;1.55;;;23.90;36.40;;;;;;5059046;28;20036;-56
2021/04/10 06:10:01;;;;;;;2.25;1.33;;;23.90;36.50;;;;;;5062198;28;20108;-53
2021/04/10 06:12:26;;;;;;;2.60;1.50;;;23.90;36.50;;;;;;5063027;28;20030;-52
2021/04/10 06:14:52;;;;;;;2.28;1.30;;;23.90;36.50;;;;;;5063787;28;20044;-53
2021/04/10 06:17:18;;;;;;;2.60;1.38;;;23.90;36.50;;;;;;5061878;28;20040;-54
2021/04/10 06:19:43;;;;;;;2.30;1.35;;;23.90;36.50;;;;;;5060207;28;20475;-54
2021/04/10 06:22:09;;;;;;;1.95;1.35;;;23.90;36.60;;;;;;5057161;28;20029;-56
2021/04/10 06:24:35;;;;;;;2.15;1.20;;;23.90;36.60;;;;;;5059825;28;20044;-56
2021/04/10 06:27:00;;;;;;;2.08;1.25;;;23.90;36.60;;;;;;5056681;28;20033;-57
2021/04/10 06:29:26;;;;;;;2.42;1.20;;;23.90;36.60;;;;;;5051005;28;20028;-55
2021/04/10 06:31:51;;;;;;;2.10;1.20;;;23.90;36.60;;;;;;5060831;28;20181;-55
2021/04/10 06:34:17;;;;;;;2.65;1.35;;;23.90;36.70;;;;;;5058556;28;22550;-55
2021/04/10 06:36:43;;;;;;;2.90;1.30;;;23.90;36.70;;;;;;5060263;28;20072;-54
2021/04/10 06:39:08;;;;;;;2.33;1.13;;;23.90;36.80;;;;;;5041925;28;20144;-58
2021/04/10 06:41:35;;;;;;;2.00;1.08;;;23.90;37.20;;;;;;5048887;28;20367;-54
2021/04/10 06:44:02;;;;;;;2.40;1.30;;;23.90;36.90;;;;;;5045900;28;20047;-51
2021/04/10 06:46:32;;;;;;;2.83;1.20;;;23.90;37.00;;;;;;5054882;28;20239;-57
2021/04/10 06:48:59;;;;;;;2.15;1.10;;;23.90;36.90;;;;;;5062917;28;20084;-53
2021/04/10 06:51:25;;;;;;;4.03;1.20;;;23.90;37.00;;;;;;5070497;28;20098;-50
2021/04/10 06:53:53;;;;;;;1.70;1.20;;;23.90;37.00;;;;;;5055691;28;20020;-57
2021/04/10 06:56:23;;;;;;;3.95;1.30;;;23.90;37.10;;;;;;5060108;28;20680;-54
2021/04/10 06:59:11;;;;;;;3.33;1.20;;;23.90;37.10;;;;;;5059584;28;20029;-53
2021/04/10 07:01:39;;;;;;;2.50;1.40;;;23.90;37.20;;;;;;5055995;28;20040;-55
2021/04/10 07:04:05;;;;;;;2.60;1.35;;;23.90;37.20;;;;;;5060503;28;20028;-53
2021/04/10 07:06:31;;;;;;;2.60;1.35;;;23.90;37.20;;;;;;5060789;28;20089;-57
2021/04/10 07:08:58;;;;;;;2.33;1.20;;;24.00;37.30;;;;;;5060363;28;20044;-55
2021/04/10 07:11:24;;;;;;;2.05;1.10;;;24.00;37.20;;;;;;5061290;28;20509;-57
2021/04/10 07:13:49;;;;;;;2.38;1.20;;;23.90;37.20;;;;;;5060097;28;20111;-54
2021/04/10 07:16:15;;;;;;;3.00;1.08;;;24.00;37.20;;;;;;5061357;28;20030;-53
2021/04/10 07:18:41;;;;;;;3.88;1.20;;;24.00;37.30;;;;;;5060107;28;20057;-53
2021/04/10 07:21:19;;;;;;;2.20;1.20;;;24.00;37.30;;;;;;5058931;28;20028;-57
2021/04/10 07:23:49;;;;;;;3.08;1.20;;;24.00;37.30;;;;;;5056459;28;20600;-54
2021/04/10 07:26:17;;;;;;;2.92;1.15;;;24.00;37.40;;;;;;5059248;28;20183;-53
2021/04/10 07:28:43;;;;;;;2.53;1.20;;;24.00;37.50;;;;;;5061793;28;20459;-55
2021/04/10 07:31:13;;;;;;;2.95;1.20;;;24.00;37.50;;;;;;5052593;28;20068;-55
2021/04/10 07:34:00;;;;;;;4.03;1.30;;;24.00;37.70;;;;;;5043076;28;20074;-51
2021/04/10 07:36:25;;;;;;;7.18;1.33;;;24.00;37.70;;;;;;5034468;28;20037;-50
2021/04/10 07:39:00;;;;;;;4.72;1.17;;;24.00;37.80;;;;;;5043085;28;20025;-51
2021/04/10 07:41:26;;;;;;;3.92;1.38;;;24.00;37.80;;;;;;5042721;28;20052;-52
2021/04/10 07:43:52;;;;;;;3.22;1.20;;;24.00;37.70;;;;;;5040999;28;20041;-49
2021/04/10 07:46:22;;;;;;;2.65;1.20;;;24.00;37.70;;;;;;5039300;28;20483;-52
2021/04/10 07:49:07;;;;;;;2.50;1.60;;;24.00;37.70;;;;;;5041171;28;20036;-51
2021/04/10 07:51:39;;;;;;;3.65;1.10;;;24.00;37.70;;;;;;5041076;28;20159;-49
2021/04/10 07:54:30;;;;;;;4.68;1.30;;;24.00;37.70;;;;;;5038656;28;20052;-52
2021/04/10 07:57:00;;;;;;;2.97;1.10;;;24.00;37.70;;;;;;5040501;28;20037;-49
2021/04/10 07:59:27;;;;;;;3.97;1.35;;;24.00;37.70;;;;;;5042380;28;20055;-48
2021/04/10 08:01:53;;;;;;;2.92;1.17;;;24.00;37.60;;;;;;5045808;28;20032;-56
2021/04/10 08:04:22;;;;;;;3.28;1.20;;;24.00;37.60;;;;;;5058453;28;20036;-55
2021/04/10 08:07:01;;;;;;;2.08;1.20;;;24.00;37.80;;;;;;5048012;28;20029;-55
2021/04/10 08:09:31;;;;;;;3.00;1.10;;;24.00;37.60;;;;;;5041268;28;20120;-48
2021/04/10 08:11:57;;;;;;;2.78;1.30;;;24.00;37.60;;;;;;5050137;28;20025;-51
2021/04/10 08:14:23;;;;;;;2.42;1.10;;;24.00;37.60;;;;;;5060163;28;20035;-51
2021/04/10 08:16:51;;;;;;;2.40;1.45;;;24.00;37.50;;;;;;5059610;28;20030;-53
2021/04/10 08:19:26;;;;;;;4.28;1.30;;;24.00;37.50;;;;;;5061176;28;20052;-50
2021/04/10 08:21:52;;;;;;;3.40;1.27;;;24.00;37.50;;;;;;5061765;28;20033;-56
2021/04/10 08:24:21;;;;;;;3.28;1.40;;;24.00;37.50;;;;;;5057896;28;20029;-54
2021/04/10 08:26:53;;;;;;;3.65;1.50;;;24.00;37.50;;;;;;5064355;28;20024;-53
2021/04/10 08:29:19;;;;;;;3.63;1.35;;;24.00;37.50;;;;;;5065254;28;20486;-54
2021/04/10 08:31:47;;;;;;;3.00;1.55;;;24.00;37.50;;;;;;5063685;28;20029;-55
2021/04/10 08:34:13;;;;;;;4.15;1.40;;;24.00;37.50;;;;;;5050277;28;20028;-49
2021/04/10 08:36:41;;;;;;;2.63;1.10;;;24.00;37.50;;;;;;5064752;28;20032;-52
2021/04/10 08:39:11;;;;;;;2.50;1.13;;;24.00;37.40;;;;;;5063306;28;20869;-52
2021/04/10 08:41:39;;;;;;;3.03;1.27;;;24.00;37.40;;;;;;5061131;28;20060;-46
2021/04/10 08:44:07;;;;;;;5.30;1.40;;;24.00;37.40;;;;;;5063111;28;20040;-50
2021/04/10 08:46:33;;;;;;;2.40;1.20;;;24.00;37.40;;;;;;5063576;28;20135;-49
2021/04/10 08:48:59;;;;;;;3.45;1.20;;;24.00;37.40;;;;;;5064449;28;20328;-55
2021/04/10 08:51:29;;;;;;;2.53;1.13;;;24.00;37.40;;;;;;5059383;28;20139;-49
2021/04/10 08:53:58;;;;;;;2.38;1.30;;;24.00;37.90;;;;;;5063129;28;20476;-52
2021/04/10 08:56:26;;;;;;;1.98;1.10;;;24.00;37.40;;;;;;5063349;28;20051;-51
2021/04/10 08:58:52;;;;;;;3.63;1.08;;;24.00;37.40;;;;;;5064875;28;20032;-53
2021/04/10 09:01:26;;;;;;;3.30;1.30;;;24.00;37.40;;;;;;5062069;28;20032;-50
2021/04/10 09:03:54;;;;;;;2.72;1.02;;;24.00;37.40;;;;;;5064481;28;20025;-56
2021/04/10 09:06:22;;;;;;;2.72;1.30;;;24.00;37.40;;;;;;5058266;28;20025;-54
2021/04/10 09:08:48;;;;;;;3.30;1.23;;;24.00;37.40;;;;;;5051519;28;20105;-51
2021/04/10 09:11:21;;;;;;;3.22;1.20;;;24.00;37.40;;;;;;5059551;28;20515;-58
2021/04/10 09:13:49;;;;;;;4.70;1.27;;;24.00;37.40;;;;;;5057672;28;20029;-54
2021/04/10 09:16:33;;;;;;;2.33;1.00;;;24.00;37.40;;;;;;5064323;28;20047;-55
2021/04/10 09:19:13;;;;;;;2.22;1.08;;;24.00;37.40;;;;;;5062466;28;20408;-56
2021/04/10 09:21:49;;;;;;;2.45;1.20;;;24.00;37.40;;;;;;5059524;28;20459;-54
2021/04/10 09:24:18;;;;;;;2.63;1.20;;;24.00;37.40;;;;;;5062230;28;20024;-52
2021/04/10 09:26:59;;;;;;;3.92;1.30;;;24.00;37.40;;;;;;5063226;28;20097;-55
2021/04/10 09:29:26;;;;;;;2.45;1.42;;;24.00;37.40;;;;;;5063297;28;20052;-49
2021/04/10 09:32:01;;;;;;;1.80;1.00;;;24.00;37.40;;;;;;5062990;28;20642;-50
2021/04/10 09:34:48;;;;;;;2.30;1.10;;;24.00;38.00;;;;;;5059804;28;20104;-55
2021/04/10 09:37:20;;;;;;;4.22;1.38;;;24.00;37.50;;;;;;5055980;28;20060;-52
2021/04/10 09:40:04;;;;;;;4.65;1.30;;;24.00;37.40;;;;;;5063354;28;20428;-53
2021/04/10 09:42:44;;;;;;;2.97;1.20;;;24.00;37.40;;;;;;5063420;28;20242;-54
2021/04/10 09:45:11;;;;;;;1.27;0.90;;;24.00;37.50;;;;;;5062624;28;20450;-51
2021/04/10 09:47:52;;;;;;;2.53;1.15;;;24.00;37.50;;;;;;5062283;28;20040;-55
2021/04/10 09:50:18;;;;;;;2.30;1.10;;;24.00;37.50;;;;;;5049988;28;20416;-51
2021/04/10 09:52:50;;;;;;;4.95;1.20;;;24.00;37.50;;;;;;5061020;28;20540;-56
2021/04/10 09:55:18;;;;;;;2.85;1.20;;;24.00;37.50;;;;;;5061942;28;20033;-55
2021/04/10 09:57:44;;;;;;;1.83;1.00;;;24.00;37.50;;;;;;5062072;28;20025;-54
2021/04/10 10:00:10;;;;;;;2.83;1.10;;;24.00;37.50;;;;;;5062803;28;20435;-56
2021/04/10 10:02:36;;;;;;;2.10;1.10;;;24.00;37.50;;;;;;5056824;28;20443;-52
2021/04/10 10:05:02;;;;;;;2.63;1.25;;;24.00;37.40;;;;;;5061180;28;20081;-56
2021/04/10 10:07:28;;;;;;;1.95;1.00;;;24.00;37.50;;;;;;5044050;28;20646;-55
2021/04/10 10:10:07;;;;;;;3.80;1.30;;;24.00;37.50;;;;;;5059077;28;20020;-56
2021/04/10 10:12:33;;;;;;;3.13;1.30;;;24.00;37.50;;;;;;5047862;28;20030;-53
2021/04/10 10:14:59;;;;;;;2.92;1.63;;;24.00;37.50;;;;;;5059942;28;20040;-55
2021/04/10 10:17:30;;;;;;;2.60;1.30;;;24.00;37.50;;;;;;5058541;28;20029;-51
2021/04/10 10:20:13;;;;;;;2.42;1.30;;;24.00;37.60;;;;;;5057994;28;20540;-54
2021/04/10 10:22:39;;;;;;;2.38;1.27;;;24.00;37.60;;;;;;5054946;28;20529;-52
2021/04/10 10:25:06;;;;;;;2.28;1.27;;;24.00;37.70;;;;;;5057265;28;20359;-53
2021/04/10 10:27:41;;;;;;;3.03;1.30;;;24.00;37.70;;;;;;5058033;28;20540;-49
2021/04/10 10:30:20;;;;;;;4.65;1.70;;;24.00;37.70;;;;;;5058489;28;20035;-48
2021/04/10 10:32:48;;;;;;;2.88;1.40;;;24.00;37.90;;;;;;5056723;28;20033;-53
2021/04/10 10:35:15;;;;;;;3.72;1.40;;;24.10;38.00;;;;;;5057898;28;20130;-57
2021/04/10 10:37:46;;;;;;;4.57;1.30;;;24.10;38.10;;;;;;5055976;28;20102;-55
2021/04/10 10:40:22;;;;;;;4.15;1.40;;;24.10;38.20;;;;;;5056762;28;20069;-54
2021/04/10 10:43:05;;;;;;;3.63;1.67;;;24.10;38.40;;;;;;5059319;28;20037;-54
2021/04/10 10:45:48;;;;;;;3.88;1.40;;;24.10;38.40;;;;;;5056832;28;20047;-53
2021/04/10 10:48:22;;;;;;;3.72;1.48;;;24.10;38.50;;;;;;5047926;28;20043;-54
2021/04/10 10:50:54;;;;;;;4.45;1.40;;;24.10;38.50;;;;;;5054685;28;20029;-53
2021/04/10 10:53:25;;;;;;;4.00;1.60;;;24.10;38.60;;;;;;5055771;28;20039;-54
2021/04/10 10:55:54;;;;;;;3.25;1.55;;;24.10;38.60;;;;;;5053930;28;20487;-56
2021/04/10 10:58:22;;;;;;;4.35;2.10;;;24.10;38.60;;;;;;5058193;28;20036;-54
2021/04/10 11:00:48;;;;;;;6.95;2.38;;;24.10;38.50;;;;;;5050593;28;20056;-53
2021/04/10 11:03:22;;;;;;;4.80;1.77;;;24.10;38.50;;;;;;5058917;28;20052;-53
2021/04/10 11:05:49;;;;;;;5.82;2.33;;;24.10;38.60;;;;;;5057611;28;20044;-54
2021/04/10 11:08:17;;;;;;;3.75;1.65;;;24.10;38.60;;;;;;5056930;28;20491;-55
2021/04/10 11:10:44;;;;;;;4.13;1.70;;;24.10;38.60;;;;;;5056778;28;20059;-56
2021/04/10 11:13:11;;;;;;;4.22;1.88;;;24.10;38.70;;;;;;5057461;28;20517;-55
2021/04/10 11:15:38;;;;;;;3.67;1.60;;;24.10;38.80;;;;;;5057092;28;20120;-56
2021/04/10 11:18:04;;;;;;;5.25;1.40;;;24.10;38.90;;;;;;5048659;28;20048;-55
2021/04/10 11:20:32;;;;;;;5.53;1.67;;;24.10;39.00;;;;;;5058413;28;20538;-54
2021/04/10 11:23:08;;;;;;;4.25;1.73;;;24.10;38.90;;;;;;5058062;28;20126;-52
2021/04/10 11:25:49;;;;;;;4.07;1.20;;;24.10;39.20;;;;;;5058005;28;20097;-58
2021/04/10 11:28:33;;;;;;;3.33;1.38;;;24.10;39.70;;;;;;5045414;28;20033;-53
2021/04/10 11:31:09;;;;;;;3.28;1.50;;;24.10;39.20;;;;;;5035307;28;20131;-58
2021/04/10 11:33:36;;;;;;;3.40;1.48;;;24.10;39.30;;;;;;5054484;28;20028;-54
2021/04/10 11:36:02;;;;;;;3.40;1.40;;;24.10;39.90;;;;;;5057763;28;20490;-56
2021/04/10 11:38:28;;;;;;;3.72;1.60;;;24.20;39.50;;;;;;5055826;28;20040;-55
2021/04/10 11:40:53;;;;;;;3.90;1.55;;;24.10;39.50;;;;;;5056854;28;20039;-57
2021/04/10 11:43:19;;;;;;;3.67;1.45;;;24.20;39.50;;;;;;5057801;28;20060;-54
2021/04/10 11:45:51;;;;;;;3.25;1.42;;;24.20;39.50;;;;;;5055372;28;20052;-55
2021/04/10 11:48:39;;;;;;;3.25;1.50;;;24.20;39.80;;;;;;5056670;28;20510;-58
2021/04/10 11:51:04;;;;;;;3.85;1.50;;;24.20;39.90;;;;;;5057785;28;20071;-58
2021/04/10 11:53:38;;;;;;;4.60;1.60;;;24.20;39.70;;;;;;5054483;28;20104;-54
2021/04/10 11:56:21;;;;;;;4.18;1.52;;;24.20;39.80;;;;;;5052612;28;20137;-57
2021/04/10 11:58:58;;;;;;;4.22;1.70;;;24.30;39.80;;;;;;5056479;28;20458;-57
2021/04/10 12:01:24;;;;;;;4.82;1.48;;;24.30;39.80;;;;;;5048850;28;20804;-57
2021/04/10 12:03:50;;;;;;;3.53;1.63;;;24.30;39.80;;;;;;5056320;28;20115;-58
2021/04/10 12:06:35;;;;;;;3.92;1.50;;;24.30;39.70;;;;;;5043610;28;20021;-56
2021/04/10 12:09:05;;;;;;;3.67;1.73;;;24.30;39.70;;;;;;5050081;28;20491;-56
2021/04/10 12:11:31;;;;;;;5.75;1.70;;;24.30;39.60;;;;;;5050650;28;20029;-56
2021/04/10 12:13:57;;;;;;;4.70;1.65;;;24.30;39.50;;;;;;5059096;28;20067;-55
2021/04/10 12:16:23;;;;;;;4.50;1.58;;;24.30;39.50;;;;;;5054245;28;20135;-59
2021/04/10 12:18:48;;;;;;;3.03;1.42;;;24.30;39.50;;;;;;5060899;28;20024;-56
2021/04/10 12:21:14;;;;;;;3.90;1.60;;;24.30;39.60;;;;;;5056714;28;20028;-58
2021/04/10 12:23:40;;;;;;;3.53;1.50;;;24.30;39.40;;;;;;5057551;28;20090;-54
2021/04/10 12:26:07;;;;;;;3.38;1.58;;;24.30;39.40;;;;;;5063046;28;20480;-60
2021/04/10 12:28:34;;;;;;;3.20;1.30;;;24.30;39.30;;;;;;5061481;28;20044;-58
2021/04/10 12:31:02;;;;;;;3.03;1.50;;;24.40;39.40;;;;;;5061199;28;20075;-56
2021/04/10 12:33:28;;;;;;;3.47;1.60;;;24.40;39.40;;;;;;5059836;28;20582;-58
2021/04/10 12:35:57;;;;;;;4.25;1.40;;;24.30;39.20;;;;;;5062508;28;20035;-57
2021/04/10 12:38:22;;;;;;;4.97;1.60;;;24.40;39.30;;;;;;5059327;28;20104;-57
2021/04/10 12:40:48;;;;;;;2.65;1.35;;;24.40;39.30;;;;;;5058638;28;20135;-56
2021/04/10 12:43:13;;;;;;;3.78;1.40;;;24.40;39.20;;;;;;5061122;28;20090;-57
2021/04/10 12:45:39;;;;;;;4.05;1.50;;;24.40;39.20;;;;;;5057212;28;20371;-57
2021/04/10 12:48:05;;;;;;;3.40;1.50;;;24.50;39.20;;;;;;5050531;28;20033;-59
2021/04/10 12:50:30;;;;;;;4.20;1.60;;;24.40;39.20;;;;;;5045529;28;20690;-58
2021/04/10 12:52:56;;;;;;;3.35;1.50;;;24.40;39.10;;;;;;5042659;28;20029;-58
2021/04/10 12:55:25;;;;;;;4.30;1.40;;;24.50;39.20;;;;;;5053850;28;20024;-58